Tuesday, May 23, 2017, 12:39 PM EDT

KNHK, Nas Patuxent River Md

Location: Patuxent River, MD, United States Lat: 38.3
Local Time: 12:39 PM EDT (16:39 GMT) Lon: -76.4
Time Zone: US/Eastern Elev: 39 ft

Show me the last for .
Show Decoded

2017-05-23 11:52 METAR KNHK 231552Z 07009KT 6SM BR OVC017 18/17 A2993 RMK AO2 SLP135 T01830167 $
                 =
2017-05-23 10:52 METAR KNHK 231452Z 08009KT 6SM BR OVC018 18/17 A2993 RMK AO2 SLP137 T01830167
                 58001 $ =
2017-05-23 09:52 METAR KNHK 231352Z 09012KT 7SM OVC018 18/17 A2994 RMK AO2 SLP137 T01780167 $ =
2017-05-23 09:09 METAR KNHK 231309Z 07008KT 10SM OVC020 18/17 A2994 RMK AO2 T01830167 $ =
2017-05-23 08:52 METAR KNHK 231252Z 07009KT 5SM BR FEW008 BKN150 BKN250 18/17 A2994 RMK AO2
                 SLP139 T01830167 $ =
2017-05-23 07:52 METAR KNHK 231152Z 04009KT 4SM BR FEW009 BKN150 BKN220 18/18 A2994 RMK AO2
                 SLP137 70013 T01830178 10183 20172 $ =
2017-05-23 06:52 METAR KNHK 231052Z 01008KT 4SM BR SCT005 BKN120 BKN250 18/18 A2993 RMK AO2
                 SLP134 T01780178 $ =
2017-05-23 06:29 METAR KNHK 231029Z 01009KT 4SM BR SCT005 BKN120 BKN250 18/18 A2993 RMK AO2
                 T01780178 $ =
2017-05-23 05:52 METAR KNHK 230952Z 02007KT 4SM BR OVC007 18/18 A2994 RMK AO2 CIG 006V011 SLP137
                 T01780178 $ =
2017-05-23 04:52 METAR KNHK 230852Z 36005KT 7SM OVC005 18/18 A2992 RMK AO2 SLP133 T01780178 50000
                 $ =
2017-05-23 04:00 METAR KNHK 230800Z AUTO 33004KT 8SM OVC005 18/18 A2993 RMK AO2 CIG 004V008
                 T01780178 $ =
2017-05-23 03:52 METAR KNHK 230752Z AUTO 34004KT 8SM OVC006 18/18 A2993 RMK AO2 CIG 004V008
                 SLP135 T01780178 $ =
2017-05-23 03:47 METAR KNHK 230747Z AUTO 35005KT 8SM BKN006 OVC010 18/18 A2993 RMK AO2 CIG
                 004V008 $ =
2017-05-23 03:40 METAR KNHK 230740Z AUTO 36006KT 8SM OVC007 18/18 A2993 RMK AO2 CIG 004V010
                 T01780178 $ =
2017-05-23 03:10 METAR KNHK 230710Z AUTO 36006KT 8SM OVC005 18/18 A2993 RMK AO2 T01780178 $ =
2017-05-23 03:03 METAR KNHK 230703Z AUTO 36007KT 8SM OVC004 18/18 A2992 RMK AO2 T01780178 $ =
2017-05-23 02:52 METAR KNHK 230652Z AUTO 02008KT 8SM OVC005 18/18 A2992 RMK AO2 CIG 003V007
                 SLP132 T01780178 $ =
2017-05-23 02:40 METAR KNHK 230640Z AUTO 01004KT 7SM OVC005 18/18 A2992 RMK AO2 CIG 002V007
                 T01780178 $ =
2017-05-23 02:21 METAR KNHK 230621Z AUTO 01004KT 6SM BR OVC002 17/17 A2993 RMK AO2 T01720172 $ =
2017-05-23 02:13 METAR KNHK 230613Z AUTO 34003KT 2SM BR OVC002 17/17 A2993 RMK AO2 T01720172 $ =
2017-05-23 02:10 METAR KNHK 230610Z AUTO 34004KT 1 1/4SM BR OVC002 17/17 A2993 RMK AO2 T01720172
                 $ =
2017-05-23 02:05 METAR KNHK 230605Z AUTO 34005KT 3/4SM BR VV002 17/17 A2993 RMK AO2 T01720172 $ =
2017-05-23 01:55 METAR KNHK 230555Z AUTO 33007KT 1SM BR OVC002 17/17 A2993 RMK AO2 T01720172 $ =
2017-05-23 01:52 METAR KNHK 230552Z AUTO 34007KT 1 1/2SM BR OVC002 17/17 A2994 RMK AO2 SLP137
                 T01720172 10189 20161 56006 $ =
2017-05-23 01:47 METAR KNHK 230547Z AUTO 35007KT 4SM BR BKN003 17/17 A2994 RMK AO2 $ =
2017-05-23 01:40 METAR KNHK 230540Z AUTO 35006KT 10SM BKN004 17/17 A2994 RMK AO2 T01720172 $ =
2017-05-23 01:31 METAR KNHK 230531Z AUTO 34005KT 10SM SCT004 17/17 A2994 RMK AO2 T01720172 $ =
2017-05-23 00:52 METAR KNHK 230452Z AUTO 30004KT 10SM CLR 17/17 A2995 RMK AO2 SLP142 T01720172
                 402000150 $ =
2017-05-22 23:52 METAR KNHK 230352Z AUTO 31003KT 10SM CLR 17/17 A2995 RMK AO2 VIS 2 1/2 RY24
                 SLP143 T01720172 $ =
2017-05-22 22:52 METAR KNHK 230252Z 30005KT 6SM BR FEW003 SCT015 SCT070 18/18 A2997 RMK AO2
                 SLP150 T01780178 51008 $ =
2017-05-22 21:52 METAR KNHK 230152Z COR 35004KT 6SM BR FEW000 FEW004 SCT016 SCT070 18/18 A2996
                 RMK AO2 SLP145 VIS W 1/4 FG FEW000 T01780178 $ =
2017-05-22 20:52 METAR KNHK 230052Z 35006KT 6SM BR BKN006 OVC017 19/19 A2997 RMK AO2 SLP149
                 T01890189 $ =
2017-05-22 20:19 METAR KNHK 230019Z 03003KT 6SM BR BKN005 BKN015 OVC070 19/19 A2996 RMK AO2
                 T01890189 $ 
2017-05-22 19:52 METAR KNHK 222352Z 00000KT 10SM SCT007 SCT018 BKN070 OVC200 19/19 A2995 RMK AO2
                 SLP142 60001 T01890189 10200 20178 56008 $ =
2017-05-22 18:52 METAR KNHK 222252Z VRB03KT 10SM SCT007 SCT018 BKN060 BKN150 20/19 A2995 RMK AO2
                 SLP143 T02000194 $ =
2017-05-22 18:32 METAR KNHK 222232Z 00000KT 10SM FEW007 SCT020 BKN050 OVC150 19/19 A2995 RMK AO2
                 T01940194 $ =
2017-05-22 17:52 METAR KNHK 222152Z 00000KT 10SM SCT007 BKN017 OVC048 19/19 A2995 RMK AO2 SLP141
                 T01940194 $ =
2017-05-22 16:52 METAR KNHK 222052Z 14003KT 10SM BKN005 OVC015 18/18 A2997 RMK AO2 RAE12 SLP149
                 P0000 60001 T01830183 55012 $ =
2017-05-22 15:52 METAR KNHK 221952Z 07004KT 10SM -RA BKN005 OVC015 18/18 A2995 RMK AO2 RAB52
                 SLP143 P0000 T01830183 $ =
2017-05-22 14:52 METAR KNHK 221852Z 00000KT 10SM BKN006 OVC016 19/19 A2997 RMK AO2 RAB1755E36
                 SLP148 P0001 T01940194 $ =
2017-05-22 14:30 METAR KNHK 221830Z 00000KT 10SM -RA BKN006 BKN016 OVC060 19/19 A2998 RMK AO2
                 RAB1755 P0001 T01890189 $ =
2017-05-22 13:52 METAR KNHK 221752Z 00000KT 10SM BKN004 OVC060 18/18 A3001 RMK AO2 RAE06 SLP161
                 P0000 60012 T01780178 10183 20156 58017 $ =
2017-05-22 12:52 METAR KNHK 221652Z 00000KT 10SM -RA OVC004 18/18 A3003 RMK AO2 RAB12 SLP168
                 P0001 T01780178 $ =

Support USWX by starting your Amazon purchase here.